Time;durP1;ratioP1;P1;durP2;ratioP2;P2;SDS_P1;SDS_P2;PMS_P1;PMS_P2;Temp;Humidity;BMP_temperature;BMP_pressure;BME280_temperature;BME280_humidity;BME280_pressure;Samples;Min_cycle;Max_cycle;Signal;HPM_P1;HPM_P2
2021/06/26 00:00:53;;;;;;;;;6.25;6.25;;;;;17.18;87.79;101485.34;4982103;28;45907;-69
2021/06/26 00:03:20;;;;;;;;;5.50;5.25;;;;;17.17;87.37;101489.00;4990894;28;45687;-69
2021/06/26 00:05:46;;;;;;;;;5.00;5.00;;;;;17.18;87.91;101489.81;4987238;28;45569;-70
2021/06/26 00:08:12;;;;;;;;;7.00;5.50;;;;;17.19;87.86;101488.84;4989146;28;45496;-69
2021/06/26 00:10:38;;;;;;;;;6.00;5.75;;;;;17.18;87.62;101484.47;4988669;28;45415;-69
2021/06/26 00:13:03;;;;;;;;;5.00;4.00;;;;;17.19;87.24;101486.97;4985128;28;45651;-68
2021/06/26 00:15:29;;;;;;;;;5.75;5.75;;;;;17.20;87.23;101487.81;4984415;28;45634;-69
2021/06/26 00:17:54;;;;;;;;;5.00;4.75;;;;;17.21;86.96;101486.81;4983982;28;45525;-70
2021/06/26 00:20:19;;;;;;;;;10.25;8.00;;;;;17.20;87.32;101493.97;4989518;28;45785;-69
2021/06/26 00:22:45;;;;;;;;;7.00;5.00;;;;;17.21;87.25;101494.84;4991147;28;46354;-69
2021/06/26 00:25:11;;;;;;;;;9.50;7.00;;;;;17.22;87.19;101493.81;4987072;28;46275;-73
2021/06/26 00:27:37;;;;;;;;;7.00;6.00;;;;;17.23;87.07;101499.97;4984990;28;45431;-68
2021/06/26 00:30:03;;;;;;;;;8.50;8.25;;;;;17.23;87.17;101492.78;4987419;28;45568;-73
2021/06/26 00:32:28;;;;;;;;;8.00;6.75;;;;;17.22;86.53;101493.81;4986942;28;46376;-70
2021/06/26 00:34:54;;;;;;;;;10.25;8.00;;;;;17.23;86.85;101495.47;4990752;28;45722;-72
2021/06/26 00:37:19;;;;;;;;;6.25;6.25;;;;;17.23;87.11;101492.78;4988287;28;45526;-70
2021/06/26 00:39:44;;;;;;;;;7.25;5.50;;;;;17.22;86.19;101493.00;4986371;28;45477;-69
2021/06/26 00:42:10;;;;;;;;;6.75;6.75;;;;;17.19;87.02;101492.34;4986721;28;46273;-69
2021/06/26 00:44:35;;;;;;;;;6.25;6.25;;;;;17.21;86.81;101492.16;4987165;28;45824;-73
2021/06/26 00:47:02;;;;;;;;;10.25;8.00;;;;;17.22;87.15;101488.47;4992196;28;45606;-64
2021/06/26 00:49:27;;;;;;;;;8.00;7.00;;;;;17.22;87.08;101488.47;4992193;28;45520;-65
2021/06/26 00:51:53;;;;;;;;;8.50;7.00;;;;;17.22;87.15;101487.66;4990444;28;45596;-65
2021/06/26 00:54:18;;;;;;;;;6.25;6.25;;;;;17.24;87.24;101491.81;4984715;28;51836;-66
2021/06/26 00:56:44;;;;;;;;;7.75;7.75;;;;;17.25;86.79;101490.78;4986850;28;46218;-66
2021/06/26 00:59:10;;;;;;;;;9.75;8.00;;;;;17.25;87.19;101485.44;4992540;28;45661;-62
2021/06/26 01:01:35;;;;;;;;;7.50;7.00;;;;;17.27;86.88;101474.59;4991662;28;46462;-67
2021/06/26 01:04:01;;;;;;;;;10.00;9.75;;;;;17.27;87.15;101474.59;4994574;28;45654;-69
2021/06/26 01:06:26;;;;;;;;;8.75;7.50;;;;;17.28;86.45;101470.91;4996142;28;45449;-69
2021/06/26 01:08:52;;;;;;;;;9.25;8.25;;;;;17.26;86.65;101465.75;4987303;28;45582;-69
2021/06/26 01:11:17;;;;;;;;;7.75;7.75;;;;;17.25;86.73;101458.72;4989950;28;46202;-65
2021/06/26 01:13:43;;;;;;;;;6.00;6.00;;;;;17.20;85.93;101455.75;4990821;28;45525;-69
2021/06/26 01:16:08;;;;;;;;;7.75;7.00;;;;;17.14;86.50;101451.97;4989547;28;45608;-63
2021/06/26 01:18:33;;;;;;;;;5.00;5.00;;;;;17.14;86.72;101453.81;4988407;28;45932;-65
2021/06/26 01:20:59;;;;;;;;;6.25;6.25;;;;;17.12;86.09;101453.97;4993632;28;45462;-69
2021/06/26 01:23:25;;;;;;;;;7.00;6.00;;;;;17.06;86.05;101452.00;4992518;28;45484;-69
2021/06/26 01:25:51;;;;;;;;;6.00;6.00;;;;;17.01;86.04;101457.00;4998252;28;45519;-62
2021/06/26 01:28:16;;;;;;;;;7.75;5.75;;;;;17.00;87.12;101451.88;4995557;28;45484;-66
2021/06/26 01:30:42;;;;;;;;;13.00;9.75;;;;;16.96;86.42;101454.88;4986199;28;45983;-66
2021/06/26 01:33:08;;;;;;;;;8.00;6.00;;;;;16.92;87.46;101448.22;4984179;28;45649;-68
2021/06/26 01:35:33;;;;;;;;;8.50;8.00;;;;;16.89;86.78;101448.56;4988435;28;45540;-65
2021/06/26 01:38:02;;;;;;;;;9.00;8.00;;;;;16.88;87.50;101446.91;5000382;28;45642;-62
2021/06/26 01:40:28;;;;;;;;;7.75;7.75;;;;;16.89;87.40;101450.38;5001904;28;45707;-66
2021/06/26 01:42:55;;;;;;;;;10.00;9.00;;;;;16.91;87.58;101446.56;4992187;28;45430;-62
2021/06/26 01:45:23;;;;;;;;;8.00;6.75;;;;;16.92;86.53;101439.38;4987761;28;45756;-66
2021/06/26 01:47:56;;;;;;;;;4.50;4.50;;;;;16.92;87.57;101448.22;4993124;28;45540;-62
2021/06/26 01:50:23;;;;;;;;;8.00;6.00;;;;;16.95;87.03;101450.53;4986310;28;46144;-66
2021/06/26 01:52:49;;;;;;;;;8.00;6.00;;;;;16.96;87.35;101454.03;4990932;28;45417;-66
2021/06/26 01:55:16;;;;;;;;;8.50;8.00;;;;;16.97;86.58;101451.19;4993721;28;45570;-63
2021/06/26 01:57:43;;;;;;;;;6.00;5.75;;;;;16.98;87.15;101444.00;4993126;28;45545;-67
2021/06/26 02:00:10;;;;;;;;;8.00;6.50;;;;;16.98;86.95;101444.84;4994263;28;46221;-63
2021/06/26 02:02:36;;;;;;;;;7.50;5.00;;;;;16.99;86.75;101432.34;4987023;28;45475;-66
2021/06/26 02:05:03;;;;;;;;;7.00;6.50;;;;;17.03;86.92;101443.50;4995264;28;45490;-66
2021/06/26 02:07:28;;;;;;;;;6.50;5.25;;;;;17.00;87.02;101434.00;4996233;28;45505;-66
2021/06/26 02:09:53;;;;;;;;;8.00;6.50;;;;;17.05;86.89;101438.81;4989386;28;46116;-65
2021/06/26 02:12:19;;;;;;;;;6.50;6.50;;;;;17.05;86.87;101438.81;4985079;28;45541;-63
2021/06/26 02:14:44;;;;;;;;;8.25;5.25;;;;;17.03;86.88;101448.84;4992101;28;46105;-64
2021/06/26 02:17:10;;;;;;;;;7.50;6.00;;;;;17.02;86.76;101447.19;4986543;28;45721;-63
2021/06/26 02:19:35;;;;;;;;;8.00;7.00;;;;;16.97;86.00;101443.19;4986111;28;46663;-66
2021/06/26 02:22:01;;;;;;;;;7.75;7.75;;;;;16.96;85.88;101443.34;4988175;28;45593;-69
2021/06/26 02:24:26;;;;;;;;;8.50;8.00;;;;;16.93;86.63;101439.19;4989298;28;45422;-62
2021/06/26 02:26:51;;;;;;;;;8.50;6.25;;;;;16.93;86.32;101439.19;4989979;28;45488;-66
2021/06/26 02:29:17;;;;;;;;;6.25;6.25;;;;;16.90;86.69;101441.38;4983780;28;45617;-68
2021/06/26 02:31:42;;;;;;;;;9.25;8.75;;;;;16.90;86.95;101430.72;4993889;28;45488;-67
2021/06/26 02:34:12;;;;;;;;;8.25;8.00;;;;;16.90;86.94;101439.56;4987502;28;45656;-68
2021/06/26 02:36:38;;;;;;;;;9.75;8.75;;;;;16.93;87.38;101438.38;5000508;28;45561;-66
2021/06/26 02:39:03;;;;;;;;;8.75;7.00;;;;;16.94;86.86;101437.38;4984883;28;45842;-67
2021/06/26 02:41:28;;;;;;;;;8.50;8.50;;;;;16.94;86.30;101446.22;4990186;28;45508;-67
2021/06/26 02:43:54;;;;;;;;;7.75;7.75;;;;;16.92;86.39;101440.22;4989036;28;45521;-66
2021/06/26 02:46:19;;;;;;;;;9.25;9.00;;;;;16.91;86.51;101432.38;4986659;28;50543;-66
2021/06/26 02:48:45;;;;;;;;;9.50;8.75;;;;;16.91;87.01;101435.03;4992142;28;47064;-66
2021/06/26 02:51:10;;;;;;;;;8.25;8.25;;;;;16.91;86.50;101424.34;4984926;28;45513;-66
2021/06/26 02:53:36;;;;;;;;;10.00;10.00;;;;;16.91;87.20;101425.22;4987691;28;45462;-65
2021/06/26 02:56:01;;;;;;;;;12.00;8.50;;;;;16.90;87.13;101433.38;4989809;28;45644;-67
2021/06/26 02:58:26;;;;;;;;;9.00;9.00;;;;;16.89;87.03;101431.69;4990174;28;46007;-66
2021/06/26 03:00:52;;;;;;;;;13.00;12.00;;;;;16.89;87.09;101426.38;4983021;28;45491;-66
2021/06/26 03:03:17;;;;;;;;;9.50;9.00;;;;;16.90;87.67;101431.53;4986680;28;45442;-62
2021/06/26 03:05:43;;;;;;;;;9.50;9.50;;;;;16.90;86.58;101426.19;4988261;28;45514;-63
2021/06/26 03:08:08;;;;;;;;;13.00;9.25;;;;;16.87;87.30;101434.56;4986845;28;45464;-66
2021/06/26 03:10:34;;;;;;;;;13.00;10.75;;;;;16.84;86.87;101431.38;4989952;28;45637;-66
2021/06/26 03:12:59;;;;;;;;;11.75;10.25;;;;;16.82;87.13;101431.59;4988326;28;45645;-68
2021/06/26 03:15:25;;;;;;;;;12.00;12.00;;;;;16.84;87.18;101431.38;4996248;28;45593;-62
2021/06/26 03:17:50;;;;;;;;;12.75;9.50;;;;;16.84;87.09;101428.72;4980696;28;45641;-66
2021/06/26 03:20:15;;;;;;;;;12.00;9.25;;;;;16.85;87.22;101431.22;4987389;28;45827;-69
2021/06/26 03:22:41;;;;;;;;;14.25;11.00;;;;;16.87;86.88;101431.91;4989924;28;46079;-65
2021/06/26 03:25:09;;;;;;;;;10.50;9.25;;;;;16.88;87.34;101438.06;4985506;28;45565;-67
2021/06/26 03:27:36;;;;;;;;;14.00;12.75;;;;;16.90;87.37;101434.22;4986433;28;46903;-62
2021/06/26 03:30:02;;;;;;;;;13.00;11.00;;;;;16.93;88.33;101433.03;4982874;28;45549;-68
2021/06/26 03:32:27;;;;;;;;;13.50;11.00;;;;;16.94;87.29;101434.72;4983861;28;45437;-67
2021/06/26 03:34:52;;;;;;;;;13.00;12.25;;;;;16.89;87.87;101431.69;4988678;28;45667;-69
2021/06/26 03:37:18;;;;;;;;;12.25;12.25;;;;;16.87;87.85;101433.75;4983931;28;46051;-67
2021/06/26 03:39:43;;;;;;;;;13.00;10.00;;;;;16.83;88.61;101429.75;4989556;28;45892;-69
2021/06/26 03:42:09;;;;;;;;;14.50;13.25;;;;;16.79;89.01;101429.28;4991125;28;45500;-62
2021/06/26 03:44:34;;;;;;;;;13.25;12.25;;;;;16.75;88.57;101430.56;4990709;28;45474;-65
2021/06/26 03:47:00;;;;;;;;;11.25;9.00;;;;;16.71;89.16;101430.06;4989353;28;47146;-63
2021/06/26 03:49:25;;;;;;;;;18.00;12.75;;;;;16.68;91.34;101430.44;4992044;28;45492;-67
2021/06/26 03:51:50;;;;;;;;;12.50;10.00;;;;;16.67;91.23;101433.28;4988613;28;45649;-66
2021/06/26 03:54:16;;;;;;;;;13.25;13.25;;;;;16.64;91.76;101430.94;4981528;28;45493;-67
2021/06/26 03:56:41;;;;;;;;;16.00;12.50;;;;;16.62;92.58;101443.66;4985561;28;45669;-67
2021/06/26 03:59:06;;;;;;;;;14.00;12.25;;;;;16.56;92.30;101437.13;4989520;28;45478;-63
2021/06/26 04:01:32;;;;;;;;;12.75;10.00;;;;;16.51;92.56;101436.81;4993411;28;45525;-67
2021/06/26 04:03:57;;;;;;;;;11.75;10.00;;;;;16.45;92.85;101432.19;4995134;28;45476;-63
2021/06/26 04:06:22;;;;;;;;;11.50;10.25;;;;;16.41;93.72;101430.84;4985075;28;46946;-67
2021/06/26 04:08:48;;;;;;;;;10.25;10.00;;;;;16.38;94.08;101439.19;4991393;28;46008;-66
2021/06/26 04:11:13;;;;;;;;;12.00;11.00;;;;;16.32;94.44;101432.72;4982870;28;45470;-66
2021/06/26 04:13:39;;;;;;;;;10.00;10.00;;;;;16.23;93.82;101434.56;4991696;28;45454;-68
2021/06/26 04:16:05;;;;;;;;;12.75;11.75;;;;;16.20;93.78;101436.75;4986310;28;45729;-65
2021/06/26 04:18:30;;;;;;;;;10.00;9.50;;;;;16.16;93.65;101435.41;4991346;28;45443;-67
2021/06/26 04:20:56;;;;;;;;;12.00;9.75;;;;;16.11;94.07;101438.56;4988717;28;45850;-69
2021/06/26 04:23:21;;;;;;;;;11.00;10.00;;;;;16.09;94.99;101443.25;4990155;28;45877;-66
2021/06/26 04:25:48;;;;;;;;;9.50;9.00;;;;;16.06;95.15;101440.91;4985384;28;46033;-67
2021/06/26 04:28:13;;;;;;;;;11.50;7.75;;;;;16.01;94.78;101443.25;4984189;28;46095;-67
2021/06/26 04:30:39;;;;;;;;;12.50;10.75;;;;;16.00;94.93;101441.56;4989311;28;45917;-68
2021/06/26 04:33:05;;;;;;;;;9.25;8.50;;;;;16.03;95.28;101439.41;4986236;28;45498;-69
2021/06/26 04:35:31;;;;;;;;;9.75;8.75;;;;;16.05;95.13;101442.75;4990258;28;45996;-67
2021/06/26 04:37:57;;;;;;;;;11.50;10.50;;;;;16.08;95.06;101444.25;4988693;28;45470;-67
2021/06/26 04:40:22;;;;;;;;;9.75;9.00;;;;;16.08;95.00;101441.59;4986696;28;45686;-69
2021/06/26 04:42:48;;;;;;;;;10.50;10.00;;;;;16.09;95.08;101451.25;4983471;28;45886;-70
2021/06/26 04:45:14;;;;;;;;;9.25;8.00;;;;;16.07;95.11;101438.09;4987825;28;46912;-67
2021/06/26 04:47:41;;;;;;;;;11.50;10.00;;;;;16.05;95.31;101444.59;4991288;28;46455;-70
2021/06/26 04:50:08;;;;;;;;;9.25;8.50;;;;;16.06;95.48;101436.41;4988923;28;45554;-67
2021/06/26 04:52:34;;;;;;;;;9.00;9.00;;;;;16.04;95.33;101443.75;4988065;28;46068;-66
2021/06/26 04:55:01;;;;;;;;;11.50;10.00;;;;;16.02;95.22;101448.44;4983451;28;46496;-66
2021/06/26 04:57:27;;;;;;;;;12.00;10.50;;;;;16.01;95.24;101449.41;4983981;28;45830;-67
2021/06/26 04:59:52;;;;;;;;;11.75;7.00;;;;;16.01;96.04;101452.06;4981793;28;45602;-71
2021/06/26 05:02:17;;;;;;;;;7.75;7.00;;;;;16.01;95.34;101443.25;4985733;28;45801;-67
2021/06/26 05:04:43;;;;;;;;;6.75;6.75;;;;;15.99;95.48;101448.75;4989747;28;46044;-70
2021/06/26 05:07:08;;;;;;;;;8.25;7.00;;;;;15.97;95.49;101452.56;4981622;28;45547;-67
2021/06/26 05:09:33;;;;;;;;;7.00;6.00;;;;;15.96;95.41;101446.41;4977680;28;45684;-68
2021/06/26 05:11:59;;;;;;;;;9.50;9.00;;;;;15.97;95.46;101445.41;4990403;28;45543;-68
2021/06/26 05:14:24;;;;;;;;;10.00;7.00;;;;;15.99;95.48;101448.75;4988578;28;45637;-70
2021/06/26 05:16:50;;;;;;;;;10.00;8.00;;;;;16.00;95.55;101439.75;4987772;28;45693;-69
2021/06/26 05:19:15;;;;;;;;;8.00;7.75;;;;;16.02;95.24;101435.09;4976925;28;45506;-68
2021/06/26 05:21:40;;;;;;;;;9.25;7.00;;;;;16.04;95.62;101443.75;4992375;28;45381;-64
2021/06/26 05:24:06;;;;;;;;;8.00;7.25;;;;;16.03;95.40;101447.41;4993189;28;45569;-69
2021/06/26 05:26:31;;;;;;;;;10.25;6.75;;;;;16.04;95.57;101443.75;4991181;28;45530;-68
2021/06/26 05:28:57;;;;;;;;;8.00;7.75;;;;;16.06;95.13;101456.91;4989754;28;45409;-67
2021/06/26 05:31:22;;;;;;;;;6.00;5.75;;;;;16.06;95.74;101447.06;4992523;28;45747;-67
2021/06/26 05:33:48;;;;;;;;;5.25;5.25;;;;;16.07;95.47;101454.09;4995178;28;46278;-67
2021/06/26 05:36:13;;;;;;;;;7.75;7.00;;;;;16.03;95.36;101450.09;4984999;28;45475;-68
2021/06/26 05:38:39;;;;;;;;;9.75;8.00;;;;;16.07;95.26;101454.09;4988108;28;46013;-70
2021/06/26 05:41:04;;;;;;;;;6.25;5.25;;;;;16.08;95.28;101455.75;4991975;28;45669;-64
2021/06/26 05:43:29;;;;;;;;;7.50;7.00;;;;;16.05;95.05;101460.59;4994084;28;45556;-64
2021/06/26 05:45:55;;;;;;;;;8.75;7.00;;;;;16.06;95.27;101470.25;4988362;28;45443;-68
2021/06/26 05:48:21;;;;;;;;;8.00;6.00;;;;;16.04;94.53;101462.41;4993996;28;45818;-64
2021/06/26 05:50:46;;;;;;;;;7.00;5.50;;;;;16.04;95.75;101467.72;4989018;28;45581;-71
2021/06/26 05:53:12;;;;;;;;;6.00;6.00;;;;;16.03;95.00;101462.59;4985657;28;46096;-68
2021/06/26 05:55:37;;;;;;;;;4.25;4.25;;;;;16.02;95.26;101467.09;4991053;28;45509;-66
2021/06/26 05:58:05;;;;;;;;;7.25;6.50;;;;;16.04;94.77;101467.72;4985389;28;45827;-67
2021/06/26 06:00:33;;;;;;;;;6.50;6.50;;;;;16.07;94.60;101464.75;4989880;28;45498;-67
2021/06/26 06:02:59;;;;;;;;;6.75;6.00;;;;;16.13;94.62;101466.75;4989360;28;45464;-67
2021/06/26 06:05:24;;;;;;;;;8.00;6.50;;;;;16.20;94.48;101464.25;4991682;28;45696;-70
2021/06/26 06:07:50;;;;;;;;;7.00;7.00;;;;;16.23;94.08;101473.75;4989757;28;45505;-66
2021/06/26 06:10:17;;;;;;;;;6.50;6.00;;;;;16.29;93.54;101468.53;4987258;28;45667;-68
2021/06/26 06:12:43;;;;;;;;;6.50;6.00;;;;;16.32;93.58;101467.41;4985261;28;46320;-69
2021/06/26 06:15:11;;;;;;;;;8.00;6.25;;;;;16.33;92.97;101469.06;4986124;28;45502;-67
2021/06/26 06:17:37;;;;;;;;;6.25;6.00;;;;;16.33;93.11;101467.22;4994198;28;45683;-67
2021/06/26 06:20:05;;;;;;;;;9.00;5.00;;;;;16.38;93.54;101465.88;4984271;28;45425;-66
2021/06/26 06:22:31;;;;;;;;;6.50;5.00;;;;;16.41;93.05;101465.53;4985428;28;47650;-70
2021/06/26 06:24:57;;;;;;;;;5.00;5.00;;;;;16.44;93.25;101460.69;5009443;28;45500;-66
2021/06/26 06:27:22;;;;;;;;;7.00;6.50;;;;;16.50;92.96;101465.34;4988183;28;45537;-71
2021/06/26 06:29:47;;;;;;;;;6.00;6.00;;;;;16.52;92.55;101463.34;4990402;28;45457;-66
2021/06/26 06:32:13;;;;;;;;;6.75;5.50;;;;;16.55;92.87;101470.19;4985383;28;46224;-69
2021/06/26 06:34:38;;;;;;;;;6.00;5.75;;;;;16.52;92.11;101481.19;4987218;28;45549;-68
2021/06/26 06:37:04;;;;;;;;;8.00;6.00;;;;;16.50;92.31;101469.84;4983169;28;45438;-67
2021/06/26 06:39:29;;;;;;;;;6.25;5.50;;;;;16.50;92.45;101476.03;4983505;28;45557;-65
2021/06/26 06:41:54;;;;;;;;;7.00;5.00;;;;;16.55;92.47;101472.84;4986326;28;45434;-71
2021/06/26 06:44:20;;;;;;;;;7.75;5.50;;;;;16.58;91.62;101467.16;4983885;28;45500;-67
2021/06/26 06:46:45;;;;;;;;;6.00;6.00;;;;;16.60;91.62;101467.00;4988725;28;45524;-66
2021/06/26 06:49:11;;;;;;;;;5.00;4.00;;;;;16.61;91.61;101452.63;4985758;28;45476;-69
2021/06/26 06:51:37;;;;;;;;;5.00;5.00;;;;;16.62;91.41;101457.00;4987806;28;47115;-70
2021/06/26 06:54:03;;;;;;;;;6.00;5.00;;;;;16.61;91.06;101460.66;4987704;28;45515;-66
2021/06/26 06:56:29;;;;;;;;;5.75;5.75;;;;;16.61;91.10;101461.47;4989470;28;45398;-68
2021/06/26 06:58:54;;;;;;;;;4.00;4.00;;;;;16.58;90.97;101467.16;4990757;28;45628;-67
2021/06/26 07:01:20;;;;;;;;;6.75;5.50;;;;;16.51;90.71;101472.34;4985689;28;46277;-67
2021/06/26 07:03:45;;;;;;;;;7.25;6.75;;;;;16.50;90.94;101475.19;4987763;28;45537;-67
2021/06/26 07:06:10;;;;;;;;;6.75;6.00;;;;;16.49;90.80;101476.19;4988260;28;45505;-69
2021/06/26 07:08:36;;;;;;;;;5.00;5.00;;;;;16.53;91.07;101481.00;4982778;28;45831;-68
2021/06/26 07:11:01;;;;;;;;;4.00;4.00;;;;;16.56;90.49;101472.66;4982038;28;45653;-70
2021/06/26 07:13:26;;;;;;;;;7.00;6.75;;;;;16.62;90.78;101470.34;4989243;28;45539;-70
2021/06/26 07:15:52;;;;;;;;;6.25;5.25;;;;;16.69;90.90;101468.63;4987291;28;45454;-71
2021/06/26 07:18:17;;;;;;;;;7.25;6.25;;;;;16.77;90.37;101476.63;4982169;28;45959;-69
2021/06/26 07:20:42;;;;;;;;;6.50;6.50;;;;;16.84;89.81;101474.09;4976244;28;46862;-65
2021/06/26 07:23:08;;;;;;;;;5.75;5.75;;;;;16.89;89.65;101483.28;4986511;28;45395;-66
2021/06/26 07:25:33;;;;;;;;;9.00;7.00;;;;;16.90;89.54;101482.28;4988087;28;45976;-68
2021/06/26 07:27:59;;;;;;;;;7.00;5.00;;;;;16.95;89.54;101482.56;4982646;28;45594;-65
2021/06/26 07:30:24;;;;;;;;;8.75;7.25;;;;;17.00;89.51;101484.72;4988489;28;45434;-65
2021/06/26 07:32:50;;;;;;;;;7.50;7.00;;;;;17.05;90.09;101477.03;4983861;28;45871;-67
2021/06/26 07:35:15;;;;;;;;;6.75;6.75;;;;;17.11;89.50;101483.50;4986970;28;45486;-69
2021/06/26 07:37:42;;;;;;;;;8.25;8.25;;;;;17.18;88.67;101489.81;4984259;28;45645;-65
2021/06/26 07:40:08;;;;;;;;;7.00;6.00;;;;;17.26;89.34;101489.81;4980099;28;46170;-71
2021/06/26 07:42:33;;;;;;;;;8.75;8.00;;;;;17.33;88.71;101488.09;4986823;28;45443;-67
2021/06/26 07:44:59;;;;;;;;;10.25;9.50;;;;;17.35;88.10;101491.41;4979583;28;45897;-68
2021/06/26 07:47:25;;;;;;;;;7.25;5.75;;;;;17.37;87.79;101494.72;4978094;28;45880;-66
2021/06/26 07:49:50;;;;;;;;;7.50;7.50;;;;;17.37;88.29;101492.06;4989423;28;45946;-70
2021/06/26 07:52:15;;;;;;;;;7.00;6.75;;;;;17.38;87.40;101501.75;4982558;28;45506;-68
2021/06/26 07:54:41;;;;;;;;;9.00;7.00;;;;;17.40;87.99;101490.88;4985364;28;45821;-72
2021/06/26 07:57:07;;;;;;;;;7.25;7.00;;;;;17.45;88.08;101495.69;4980863;28;45857;-64
2021/06/26 07:59:32;;;;;;;;;7.00;7.00;;;;;17.53;87.87;101487.63;4987092;28;46050;-65
2021/06/26 08:01:57;;;;;;;;;8.50;8.00;;;;;17.60;87.61;101491.25;4982820;28;45525;-66
2021/06/26 08:04:23;;;;;;;;;8.00;7.00;;;;;17.61;86.73;101477.72;4983799;28;45516;-69
2021/06/26 08:06:48;;;;;;;;;7.00;6.25;;;;;17.63;86.87;101482.91;4980727;28;45979;-66
2021/06/26 08:09:14;;;;;;;;;7.00;7.00;;;;;17.63;87.31;101489.06;4978070;28;46722;-68
2021/06/26 08:11:39;;;;;;;;;9.00;7.00;;;;;17.61;86.44;101476.91;4976953;28;45586;-69
2021/06/26 08:14:04;;;;;;;;;7.75;7.00;;;;;17.59;87.28;101481.59;4982780;28;45466;-64
2021/06/26 08:16:30;;;;;;;;;7.75;7.75;;;;;17.59;87.71;101470.88;4984718;28;45535;-69
2021/06/26 08:18:55;;;;;;;;;8.75;6.25;;;;;17.64;87.39;101473.88;4979541;28;46035;-70
2021/06/26 08:21:22;;;;;;;;;7.00;7.00;;;;;17.66;87.07;101471.84;4986394;28;45934;-65
2021/06/26 08:23:51;;;;;;;;;7.00;7.00;;;;;17.69;86.67;101471.47;4981931;28;45740;-69
2021/06/26 08:26:17;;;;;;;;;10.50;8.00;;;;;17.72;85.95;101471.13;4982287;28;46060;-66
2021/06/26 08:28:42;;;;;;;;;8.50;7.00;;;;;17.77;86.94;101471.41;4980664;28;46187;-69
2021/06/26 08:31:08;;;;;;;;;8.00;7.00;;;;;17.82;86.30;101462.88;4980275;28;45644;-69
2021/06/26 08:33:33;;;;;;;;;8.75;7.25;;;;;17.87;86.61;101457.00;4983216;28;45545;-65
2021/06/26 08:35:58;;;;;;;;;6.00;6.00;;;;;17.96;85.58;101462.09;4982826;28;45441;-71
2021/06/26 08:38:24;;;;;;;;;9.00;7.00;;;;;18.10;84.81;101462.31;4985155;28;47005;-66
2021/06/26 08:40:54;;;;;;;;;8.00;7.00;;;;;18.21;84.78;101461.91;4986429;28;45494;-66
2021/06/26 08:43:20;;;;;;;;;6.50;6.50;;;;;18.30;84.02;101465.31;4989073;28;45670;-66
2021/06/26 08:45:46;;;;;;;;;9.00;8.00;;;;;18.31;83.61;101464.31;4985092;28;45493;-70
2021/06/26 08:48:12;;;;;;;;;7.00;7.00;;;;;18.32;83.53;101472.13;4983822;28;46033;-70
2021/06/26 08:50:37;;;;;;;;;10.75;8.00;;;;;18.33;82.62;101478.34;4986305;28;45757;-65
2021/06/26 08:53:03;;;;;;;;;8.50;8.50;;;;;18.33;83.34;101470.31;4991255;28;45542;-64
2021/06/26 08:55:28;;;;;;;;;7.00;6.50;;;;;18.41;83.64;101475.56;4991219;28;45931;-69
2021/06/26 08:57:54;;;;;;;;;8.00;8.00;;;;;18.52;83.05;101476.94;4983444;28;47092;-70
2021/06/26 09:00:23;;;;;;;;;3.75;2.50;;;;;18.62;83.28;101469.47;4986312;28;45465;-70
2021/06/26 09:02:49;;;;;;;;;9.00;9.00;;;;;18.75;83.29;101466.19;4988156;28;45669;-65
2021/06/26 09:05:27;;;;;;;;;11.50;10.75;;;;;18.94;83.04;101467.47;4988188;28;45926;-65
2021/06/26 09:07:53;;;;;;;;;9.50;8.00;;;;;19.06;82.16;101463.28;4987173;28;46319;-69
2021/06/26 09:10:22;;;;;;;;;10.75;8.50;;;;;19.15;81.36;101459.50;4986420;28;58236;-64
2021/06/26 09:12:50;;;;;;;;;9.00;7.25;;;;;19.31;80.95;101456.59;4987218;28;45343;-66
2021/06/26 09:15:33;;;;;;;;;9.75;7.50;;;;;19.53;80.42;101460.13;4983530;28;45437;-66
2021/06/26 09:18:10;;;;;;;;;11.50;9.00;;;;;19.63;79.36;101458.97;4978684;28;46170;-66
2021/06/26 09:20:39;;;;;;;;;8.50;7.50;;;;;19.70;77.18;101468.75;4989911;28;45523;-70
2021/06/26 09:23:15;;;;;;;;;9.50;8.50;;;;;19.70;78.10;101462.56;4988703;28;50029;-70
2021/06/26 09:25:41;;;;;;;;;10.00;9.50;;;;;19.80;79.08;101462.25;4991105;28;45447;-66
2021/06/26 09:28:09;;;;;;;;;10.50;9.50;;;;;20.10;78.73;101460.22;4984236;28;47090;-64
2021/06/26 09:30:41;;;;;;;;;9.75;8.00;;;;;20.71;79.42;101462.31;4987530;28;45545;-66
2021/06/26 09:33:14;;;;;;;;;7.00;6.75;;;;;21.46;77.18;101457.84;4986790;28;45436;-70
2021/06/26 09:35:42;;;;;;;;;15.25;12.25;;;;;22.00;74.59;101450.66;4988638;28;45537;-71
2021/06/26 09:38:09;;;;;;;;;9.25;9.25;;;;;22.82;71.17;101454.66;4986509;28;46211;-70
2021/06/26 09:40:39;;;;;;;;;10.75;10.25;;;;;23.62;70.20;101448.88;4990380;28;45435;-65
2021/06/26 09:43:04;;;;;;;;;10.00;10.00;;;;;24.14;64.91;101449.50;4988526;28;45494;-70
2021/06/26 09:45:29;;;;;;;;;8.00;6.75;;;;;24.31;62.61;101440.81;4988262;28;45512;-69
2021/06/26 09:48:03;;;;;;;;;9.50;8.25;;;;;24.52;64.50;101436.91;4987083;28;46234;-69
2021/06/26 09:50:29;;;;;;;;;7.25;7.25;;;;;24.77;65.37;101444.91;4983326;28;45458;-65
2021/06/26 09:53:04;;;;;;;;;7.50;7.50;;;;;25.10;65.86;101448.03;4987342;28;45509;-65
2021/06/26 09:55:37;;;;;;;;;8.00;7.50;;;;;25.20;64.24;101457.50;4987815;28;45712;-64
2021/06/26 09:58:19;;;;;;;;;7.00;6.50;;;;;24.95;63.27;101453.03;4983008;28;46250;-70
2021/06/26 10:00:46;;;;;;;;;8.50;6.50;;;;;24.70;61.28;101455.78;4984088;28;45451;-69
2021/06/26 10:03:15;;;;;;;;;8.00;6.75;;;;;24.62;63.45;101465.03;4983954;28;45545;-65
2021/06/26 10:05:43;;;;;;;;;9.00;7.00;;;;;24.59;62.87;101460.09;4985450;28;45598;-65
2021/06/26 10:08:09;;;;;;;;;10.00;7.00;;;;;24.38;63.06;101472.13;4983995;28;45559;-69
2021/06/26 10:10:35;;;;;;;;;7.00;7.00;;;;;24.21;64.41;101462.97;4986907;28;45722;-64
2021/06/26 10:13:01;;;;;;;;;4.75;4.50;;;;;24.09;61.86;101470.94;5000448;28;45828;-64
2021/06/26 10:15:30;;;;;;;;;6.00;6.00;;;;;23.86;59.59;101476.13;4985462;28;45458;-70
2021/06/26 10:17:56;;;;;;;;;8.00;5.00;;;;;23.49;61.98;101475.94;4985118;28;45994;-69
2021/06/26 10:20:23;;;;;;;;;8.25;6.75;;;;;23.27;63.70;101470.03;4983741;28;45371;-70
2021/06/26 10:22:54;;;;;;;;;8.00;7.00;;;;;23.27;61.37;101473.59;4986802;28;45651;-70
2021/06/26 10:25:19;;;;;;;;;8.00;6.00;;;;;23.30;64.50;101466.94;4984905;28;45588;-64
2021/06/26 10:27:45;;;;;;;;;6.25;6.25;;;;;23.64;64.38;101471.06;4980595;28;46020;-70
2021/06/26 10:30:18;;;;;;;;;7.50;6.50;;;;;23.99;60.83;101470.63;4984575;28;45448;-69
2021/06/26 10:32:55;;;;;;;;;7.50;7.50;;;;;24.06;61.28;101471.41;4983278;28;45524;-65
2021/06/26 10:35:22;;;;;;;;;8.00;7.00;;;;;24.09;63.18;101465.56;4985014;28;45656;-70
2021/06/26 10:38:18;;;;;;;;;7.25;7.00;;;;;24.30;62.19;101466.19;4988023;28;45379;-65
2021/06/26 10:40:55;;;;;;;;;8.25;8.25;;;;;24.64;61.17;101462.94;4986381;28;45712;-69
2021/06/26 10:43:30;;;;;;;;;7.00;7.00;;;;;24.92;60.83;101458.84;4986393;28;45481;-63
2021/06/26 10:46:12;;;;;;;;;6.25;6.25;;;;;25.32;59.77;101458.34;4984297;28;45670;-65
2021/06/26 10:48:40;;;;;;;;;9.75;8.75;;;;;25.44;59.86;101455.69;4972827;28;46333;-69
2021/06/26 10:51:07;;;;;;;;;7.00;6.25;;;;;25.36;54.97;101459.56;4980369;28;45481;-69
2021/06/26 10:53:40;;;;;;;;;7.00;7.00;;;;;25.11;57.64;101455.06;4985060;28;45542;-65
2021/06/26 10:56:14;;;;;;;;;6.75;6.00;;;;;25.10;58.74;101456.16;4981770;28;45574;-69
2021/06/26 10:58:44;;;;;;;;;6.75;6.75;;;;;25.06;58.63;101454.13;4987361;28;45613;-66
2021/06/26 11:01:16;;;;;;;;;9.00;6.50;;;;;24.96;53.48;101454.66;4983379;28;45550;-70
2021/06/26 11:03:43;;;;;;;;;7.75;7.00;;;;;24.69;55.87;101454.16;4981409;28;45494;-66
2021/06/26 11:06:26;;;;;;;;;7.25;7.25;;;;;24.40;58.41;101456.50;4981381;28;45525;-65
2021/06/26 11:08:55;;;;;;;;;8.00;8.00;;;;;24.20;60.41;101456.72;4981528;28;46027;-65
2021/06/26 11:11:27;;;;;;;;;9.50;7.50;;;;;24.03;59.20;101461.88;4982926;28;45823;-66
2021/06/26 11:14:03;;;;;;;;;7.00;7.00;;;;;23.83;61.74;101458.50;4983025;28;46043;-70
2021/06/26 11:16:28;;;;;;;;;8.25;7.75;;;;;23.64;62.27;101452.19;4987957;28;45560;-66
2021/06/26 11:18:54;;;;;;;;;8.25;8.25;;;;;23.40;61.77;101451.91;4981268;28;45985;-70